Time;durP1;ratioP1;P1;durP2;ratioP2;P2;SDS_P1;SDS_P2;PMS_P1;PMS_P2;Temp;Humidity;BMP_temperature;BMP_pressure;BME280_temperature;BME280_humidity;BME280_pressure;Samples;Min_cycle;Max_cycle;Signal;HPM_P1;HPM_P2
2023/04/14 00:01:57;;;;;;;2.70;2.42;;;6.80;99.90;;;;;;5049594;28;20643;-75
2023/04/14 00:04:22;;;;;;;2.35;2.15;;;6.70;99.90;;;;;;5052979;28;20683;-76
2023/04/14 00:06:48;;;;;;;2.38;2.25;;;6.70;99.90;;;;;;5047050;28;20701;-76
2023/04/14 00:09:14;;;;;;;2.22;2.03;;;6.70;99.90;;;;;;5046996;28;20258;-76
2023/04/14 00:11:40;;;;;;;3.50;2.40;;;6.70;99.90;;;;;;5046587;28;20225;-75
2023/04/14 00:14:05;;;;;;;3.22;2.35;;;6.60;99.90;;;;;;5047429;28;20578;-75
2023/04/14 00:16:31;;;;;;;2.88;2.20;;;6.60;99.90;;;;;;5050109;28;20175;-75
2023/04/14 00:18:57;;;;;;;4.63;2.17;;;6.60;99.90;;;;;;5050008;28;20184;-75
2023/04/14 00:21:22;;;;;;;4.18;2.58;;;6.60;99.90;;;;;;5041892;28;20184;-75
2023/04/14 00:23:48;;;;;;;2.72;2.53;;;6.60;99.90;;;;;;5046741;28;20677;-75
2023/04/14 00:26:14;;;;;;;2.38;2.10;;;6.60;99.90;;;;;;5051602;28;20186;-75
2023/04/14 00:28:39;;;;;;;3.90;2.50;;;6.50;99.90;;;;;;5048184;28;20313;-75
2023/04/14 00:31:05;;;;;;;2.67;2.47;;;6.50;99.90;;;;;;5048921;28;20299;-75
2023/04/14 00:33:31;;;;;;;3.75;2.60;;;6.50;99.90;;;;;;5055780;28;20203;-74
2023/04/14 00:35:57;;;;;;;4.65;3.22;;;6.50;99.90;;;;;;5044800;28;20195;-75
2023/04/14 00:38:22;;;;;;;4.32;2.95;;;6.40;99.90;;;;;;5045010;28;20621;-75
2023/04/14 00:40:48;;;;;;;3.15;2.60;;;6.40;99.90;;;;;;5047924;28;20238;-75
2023/04/14 00:43:18;;;;;;;4.97;2.97;;;6.30;99.90;;;;;;5047395;28;20177;-75
2023/04/14 00:45:46;;;;;;;4.55;3.00;;;6.30;99.90;;;;;;5046376;28;20223;-74
2023/04/14 00:48:14;;;;;;;2.95;2.75;;;6.30;99.90;;;;;;5052477;28;20294;-75
2023/04/14 00:50:40;;;;;;;3.67;3.03;;;6.20;99.90;;;;;;5051487;28;20182;-74
2023/04/14 00:53:06;;;;;;;3.85;2.95;;;6.20;99.90;;;;;;5052376;28;20208;-75
2023/04/14 00:55:33;;;;;;;6.68;3.28;;;6.20;99.90;;;;;;5048472;28;20199;-74
2023/04/14 00:58:00;;;;;;;3.15;2.90;;;6.20;99.90;;;;;;5050918;28;20271;-74
2023/04/14 01:00:27;;;;;;;5.07;3.35;;;6.20;99.90;;;;;;5031817;28;20219;-75
2023/04/14 01:02:52;;;;;;;3.70;3.10;;;6.20;99.90;;;;;;5045893;28;20249;-74
2023/04/14 01:05:18;;;;;;;5.15;3.28;;;6.20;99.90;;;;;;5048315;28;20622;-75
2023/04/14 01:07:45;;;;;;;6.13;3.55;;;6.20;99.90;;;;;;5049748;28;20180;-75
2023/04/14 01:10:10;;;;;;;3.88;2.90;;;6.20;99.90;;;;;;5047870;28;20188;-75
2023/04/14 01:12:45;;;;;;;2.85;2.65;;;6.20;99.90;;;;;;5041896;28;20179;-75
2023/04/14 01:15:31;;;;;;;4.03;2.75;;;6.20;99.90;;;;;;5045456;28;20346;-75
2023/04/14 01:18:10;;;;;;;1.92;1.83;;;6.20;99.90;;;;;;5041361;28;20212;-75
2023/04/14 01:20:47;;;;;;;5.93;2.92;;;6.10;99.90;;;;;;5047422;28;20229;-75
2023/04/14 01:23:21;;;;;;;3.13;2.83;;;6.10;99.90;;;;;;5043693;28;20191;-75
2023/04/14 01:26:01;;;;;;;4.60;2.80;;;6.10;99.90;;;;;;5030860;28;20203;-74
2023/04/14 01:28:57;;;;;;;2.72;2.53;;;6.10;99.90;;;;;;5028604;28;20183;-75
2023/04/14 01:31:28;;;;;;;4.05;2.95;;;6.00;99.90;;;;;;5047380;28;20176;-75
2023/04/14 01:34:35;;;;;;;3.10;2.90;;;6.10;99.90;;;;;;5037552;28;20219;-75
2023/04/14 01:37:12;;;;;;;3.35;2.78;;;6.10;99.90;;;;;;5035237;28;20187;-76
2023/04/14 01:39:41;;;;;;;3.42;2.80;;;6.10;99.90;;;;;;5045569;28;20712;-76
2023/04/14 01:42:11;;;;;;;3.28;2.97;;;6.10;99.90;;;;;;5039496;28;20181;-75
2023/04/14 01:44:39;;;;;;;5.18;3.28;;;6.20;99.90;;;;;;5044833;28;20202;-76
2023/04/14 01:47:08;;;;;;;3.75;3.45;;;6.20;99.90;;;;;;5046285;28;20184;-74
2023/04/14 01:49:38;;;;;;;4.65;3.15;;;6.10;99.90;;;;;;5040297;28;20711;-75
2023/04/14 01:52:06;;;;;;;4.43;3.20;;;6.10;99.90;;;;;;5042873;28;20237;-74
2023/04/14 01:54:34;;;;;;;4.72;3.63;;;6.00;99.90;;;;;;5050874;28;20576;-75
2023/04/14 01:57:02;;;;;;;4.88;2.92;;;5.90;99.90;;;;;;5044689;28;20172;-74
2023/04/14 01:59:31;;;;;;;3.67;3.33;;;6.00;99.90;;;;;;5049848;28;20203;-75
2023/04/14 02:02:00;;;;;;;4.90;3.53;;;6.00;99.90;;;;;;5046012;28;20187;-74
2023/04/14 02:04:28;;;;;;;3.15;2.85;;;6.00;99.90;;;;;;5047447;28;20677;-74
2023/04/14 02:06:56;;;;;;;4.00;2.95;;;6.00;99.90;;;;;;5046356;28;20210;-74
2023/04/14 02:09:24;;;;;;;3.08;2.80;;;6.00;99.90;;;;;;5050823;28;20650;-74
2023/04/14 02:11:51;;;;;;;4.22;3.10;;;6.00;99.90;;;;;;5049295;28;20240;-75
2023/04/14 02:14:18;;;;;;;4.53;3.13;;;6.00;99.90;;;;;;5049438;28;20210;-75
2023/04/14 02:16:47;;;;;;;3.83;2.80;;;5.90;99.90;;;;;;5050151;28;20184;-75
2023/04/14 02:19:14;;;;;;;5.70;3.08;;;5.90;99.90;;;;;;5051529;28;20259;-75
2023/04/14 02:21:41;;;;;;;4.70;3.47;;;5.90;99.90;;;;;;5051917;28;20180;-76
2023/04/14 02:24:07;;;;;;;5.35;3.53;;;5.90;99.90;;;;;;5047731;28;20196;-75
2023/04/14 02:26:36;;;;;;;4.93;3.30;;;5.90;99.90;;;;;;5049495;28;20184;-75
2023/04/14 02:29:14;;;;;;;3.53;3.22;;;5.90;99.90;;;;;;5043377;28;20176;-75
2023/04/14 02:31:43;;;;;;;3.33;3.00;;;5.90;99.90;;;;;;5040252;28;20341;-75
2023/04/14 02:34:11;;;;;;;4.65;3.55;;;5.80;99.90;;;;;;5041252;28;20216;-75
2023/04/14 02:37:00;;;;;;;4.78;3.63;;;5.80;99.90;;;;;;5048363;28;20195;-74
2023/04/14 02:39:35;;;;;;;3.45;3.15;;;5.80;99.90;;;;;;5048032;28;20177;-75
2023/04/14 02:42:09;;;;;;;5.47;3.80;;;5.80;99.90;;;;;;5046566;28;20172;-74
2023/04/14 02:44:40;;;;;;;3.13;2.90;;;5.90;99.90;;;;;;5046874;28;20270;-74
2023/04/14 02:47:10;;;;;;;4.05;3.10;;;5.90;99.90;;;;;;5047196;28;20180;-74
2023/04/14 02:49:40;;;;;;;3.63;3.00;;;5.90;99.90;;;;;;5048241;28;20273;-74
2023/04/14 02:52:09;;;;;;;4.03;3.13;;;5.90;99.90;;;;;;5039990;28;20254;-74
2023/04/14 02:54:38;;;;;;;3.75;3.42;;;6.00;99.90;;;;;;5048149;28;20279;-74
2023/04/14 02:57:04;;;;;;;5.70;3.92;;;5.90;99.90;;;;;;5042981;28;20730;-74
2023/04/14 02:59:31;;;;;;;4.68;3.88;;;5.90;99.90;;;;;;5051372;28;20179;-74
2023/04/14 03:02:04;;;;;;;5.20;4.10;;;5.90;99.90;;;;;;5047175;28;20176;-74
2023/04/14 03:04:32;;;;;;;7.57;4.03;;;5.90;99.90;;;;;;5044061;28;20196;-74
2023/04/14 03:06:59;;;;;;;3.53;3.22;;;5.90;99.90;;;;;;5051127;28;20298;-74
2023/04/14 03:09:26;;;;;;;4.45;3.92;;;5.90;99.90;;;;;;5045913;28;20184;-75
2023/04/14 03:11:54;;;;;;;3.55;3.25;;;5.80;99.90;;;;;;5041051;28;20202;-75
2023/04/14 03:14:21;;;;;;;4.47;3.22;;;5.90;99.90;;;;;;5033726;28;20557;-75
2023/04/14 03:16:52;;;;;;;3.80;2.80;;;5.90;99.90;;;;;;5052866;28;20180;-76
2023/04/14 03:19:22;;;;;;;3.70;3.40;;;5.90;99.90;;;;;;5047292;28;20172;-76
2023/04/14 03:21:53;;;;;;;4.38;3.22;;;6.00;99.90;;;;;;5049481;28;20201;-76
2023/04/14 03:24:23;;;;;;;5.68;3.40;;;5.90;99.90;;;;;;5051992;28;20195;-75
2023/04/14 03:26:57;;;;;;;3.95;3.40;;;5.80;99.90;;;;;;5047736;28;20180;-75
2023/04/14 03:29:28;;;;;;;6.97;4.00;;;5.80;99.90;;;;;;5041202;28;20708;-75
2023/04/14 03:31:56;;;;;;;5.25;3.58;;;5.80;99.90;;;;;;5050921;28;20188;-75
2023/04/14 03:34:25;;;;;;;4.80;3.35;;;5.80;99.90;;;;;;5049280;28;20203;-75
2023/04/14 03:36:53;;;;;;;3.03;2.83;;;5.80;99.90;;;;;;5034014;28;20172;-76
2023/04/14 03:39:21;;;;;;;4.03;3.30;;;5.80;99.90;;;;;;5056480;28;20168;-76
2023/04/14 03:41:50;;;;;;;5.15;3.17;;;5.70;99.90;;;;;;5055248;28;20180;-75
2023/04/14 03:44:17;;;;;;;3.88;3.47;;;5.70;99.90;;;;;;5056011;28;20562;-75
2023/04/14 03:46:43;;;;;;;7.78;4.00;;;5.60;99.90;;;;;;5052068;28;20182;-75
2023/04/14 03:49:14;;;;;;;5.28;4.20;;;5.60;99.90;;;;;;5034098;28;20184;-75
2023/04/14 03:51:42;;;;;;;8.38;4.07;;;5.60;99.90;;;;;;5052172;28;20656;-75
2023/04/14 03:54:10;;;;;;;4.80;3.67;;;5.60;99.90;;;;;;5054818;28;20199;-75
2023/04/14 03:56:39;;;;;;;5.80;3.85;;;5.60;99.90;;;;;;5047106;28;20172;-75
2023/04/14 03:59:11;;;;;;;4.60;3.17;;;5.60;99.90;;;;;;5046141;28;20534;-75
2023/04/14 04:01:39;;;;;;;4.78;4.00;;;5.60;99.90;;;;;;5045648;28;20194;-75
2023/04/14 04:04:06;;;;;;;5.07;4.18;;;5.60;99.90;;;;;;5045419;28;20207;-75
2023/04/14 04:06:32;;;;;;;4.25;3.83;;;5.60;99.90;;;;;;5044019;28;20172;-75
2023/04/14 04:09:00;;;;;;;6.13;3.90;;;5.60;99.90;;;;;;5030102;28;20222;-75
2023/04/14 04:11:27;;;;;;;4.95;3.42;;;5.60;99.90;;;;;;5050584;28;20173;-75
2023/04/14 04:13:55;;;;;;;3.70;3.40;;;5.60;99.90;;;;;;5047997;28;20215;-75
2023/04/14 04:16:23;;;;;;;7.97;3.63;;;5.60;99.90;;;;;;5041525;28;20172;-74
2023/04/14 04:18:50;;;;;;;4.68;3.78;;;5.70;99.90;;;;;;5047677;28;20667;-75
2023/04/14 04:21:17;;;;;;;5.22;3.90;;;5.70;99.90;;;;;;5048505;28;20188;-75
2023/04/14 04:23:47;;;;;;;3.92;3.47;;;5.70;99.90;;;;;;5037364;28;20204;-76
2023/04/14 04:26:13;;;;;;;5.28;4.10;;;5.70;99.90;;;;;;5051041;28;20184;-74
2023/04/14 04:28:40;;;;;;;4.78;4.03;;;5.70;99.90;;;;;;5046027;28;20251;-75
2023/04/14 04:31:08;;;;;;;4.97;3.70;;;5.70;99.90;;;;;;5046506;28;20237;-75
2023/04/14 04:33:34;;;;;;;3.92;3.42;;;5.70;99.90;;;;;;5039165;28;20230;-75
2023/04/14 04:36:01;;;;;;;6.20;4.40;;;5.70;99.90;;;;;;5047222;28;20713;-75
2023/04/14 04:38:27;;;;;;;4.50;3.97;;;5.60;99.90;;;;;;5044691;28;20648;-75
2023/04/14 04:40:53;;;;;;;6.32;4.45;;;5.60;99.90;;;;;;5047817;28;20173;-75
2023/04/14 04:43:19;;;;;;;4.25;3.80;;;5.70;99.90;;;;;;5031082;28;20222;-76
2023/04/14 04:46:03;;;;;;;4.43;4.13;;;5.60;99.90;;;;;;5048138;28;20192;-76
2023/04/14 04:48:28;;;;;;;4.82;4.30;;;5.60;99.90;;;;;;5044190;28;20230;-74
2023/04/14 04:50:54;;;;;;;3.95;3.40;;;5.60;99.90;;;;;;5049777;28;20196;-75
2023/04/14 04:53:20;;;;;;;4.95;4.25;;;5.60;99.90;;;;;;5046269;28;20206;-77
2023/04/14 04:55:45;;;;;;;4.75;4.35;;;5.60;99.90;;;;;;5044819;28;20180;-75
2023/04/14 04:58:11;;;;;;;5.97;4.30;;;5.60;99.90;;;;;;5045728;28;20718;-76
2023/04/14 05:00:36;;;;;;;6.38;4.60;;;5.60;99.90;;;;;;5043210;28;20533;-75
2023/04/14 05:03:02;;;;;;;5.95;4.75;;;5.50;99.90;;;;;;5049467;28;20202;-77
2023/04/14 05:05:28;;;;;;;5.15;4.30;;;5.50;99.90;;;;;;5045299;28;20200;-75
2023/04/14 05:07:53;;;;;;;4.53;4.15;;;5.60;99.90;;;;;;5046759;28;20243;-76
2023/04/14 05:10:19;;;;;;;6.03;4.40;;;5.60;99.90;;;;;;5039884;28;20180;-75
2023/04/14 05:12:44;;;;;;;8.88;4.68;;;5.60;99.90;;;;;;5047741;28;20536;-75
2023/04/14 05:15:10;;;;;;;5.28;4.88;;;5.60;99.90;;;;;;5043271;28;20250;-75
2023/04/14 05:17:36;;;;;;;5.47;4.97;;;5.60;99.90;;;;;;5041892;28;20203;-75
2023/04/14 05:20:04;;;;;;;4.93;4.47;;;5.60;99.90;;;;;;5038459;28;20660;-75
2023/04/14 05:22:30;;;;;;;4.70;4.30;;;5.70;99.90;;;;;;5046463;28;20590;-75
2023/04/14 05:24:56;;;;;;;4.47;4.13;;;5.70;99.90;;;;;;5048889;28;20207;-75
2023/04/14 05:27:21;;;;;;;5.20;4.30;;;5.80;99.90;;;;;;5045685;28;20191;-76
2023/04/14 05:29:47;;;;;;;5.97;4.63;;;5.90;99.90;;;;;;5048562;28;20253;-75
2023/04/14 05:32:13;;;;;;;5.00;4.60;;;5.80;99.90;;;;;;5046353;28;20267;-75
2023/04/14 05:34:39;;;;;;;5.70;4.68;;;5.90;99.90;;;;;;5049986;28;20231;-75
2023/04/14 05:37:05;;;;;;;5.13;3.75;;;6.00;99.90;;;;;;5043741;28;20181;-76
2023/04/14 05:39:31;;;;;;;5.05;4.55;;;6.00;99.90;;;;;;5039467;28;20184;-76
2023/04/14 05:41:58;;;;;;;5.82;5.32;;;6.00;99.90;;;;;;5052307;28;20253;-76
2023/04/14 05:44:24;;;;;;;4.43;4.13;;;6.10;99.90;;;;;;5047986;28;20188;-76
2023/04/14 05:46:50;;;;;;;5.10;4.10;;;6.10;99.90;;;;;;5047702;28;20202;-76
2023/04/14 05:49:15;;;;;;;4.32;3.92;;;6.10;99.90;;;;;;5041495;28;20195;-76
2023/04/14 05:51:41;;;;;;;4.28;3.97;;;6.20;99.90;;;;;;5044593;28;20175;-76
2023/04/14 05:54:07;;;;;;;4.13;3.78;;;6.20;99.90;;;;;;5047086;28;20624;-74
2023/04/14 05:56:32;;;;;;;5.20;4.15;;;6.30;99.90;;;;;;5046677;28;20176;-74
2023/04/14 05:58:58;;;;;;;4.70;4.30;;;6.40;99.90;;;;;;5043393;28;20212;-75
2023/04/14 06:01:23;;;;;;;4.97;4.57;;;6.50;99.90;;;;;;5052903;28;20172;-75
2023/04/14 06:03:49;;;;;;;5.68;4.63;;;6.50;99.90;;;;;;5049579;28;20283;-75
2023/04/14 06:06:15;;;;;;;5.55;4.72;;;6.60;99.90;;;;;;5046875;28;20184;-77
2023/04/14 06:08:40;;;;;;;4.80;4.40;;;6.80;99.90;;;;;;5025402;28;20183;-75
2023/04/14 06:11:06;;;;;;;5.75;4.45;;;6.80;99.90;;;;;;5049124;28;20703;-78
2023/04/14 06:13:31;;;;;;;5.53;4.53;;;6.80;99.90;;;;;;5048842;28;20351;-77
2023/04/14 06:15:58;;;;;;;5.47;4.50;;;6.80;99.90;;;;;;5053118;28;20184;-76
2023/04/14 06:18:23;;;;;;;6.43;4.78;;;6.90;99.90;;;;;;5048284;28;20168;-77
2023/04/14 06:20:49;;;;;;;5.70;4.55;;;6.90;99.90;;;;;;5040287;28;20202;-75
2023/04/14 06:23:15;;;;;;;4.78;4.38;;;6.90;99.90;;;;;;5045789;28;20682;-76
2023/04/14 06:25:40;;;;;;;4.43;4.03;;;7.00;99.90;;;;;;5048801;28;20210;-75
2023/04/14 06:28:06;;;;;;;4.88;4.32;;;7.10;99.90;;;;;;5055549;28;20184;-74
2023/04/14 06:30:32;;;;;;;4.05;3.75;;;7.10;99.90;;;;;;5046653;28;21138;-76
2023/04/14 06:33:00;;;;;;;5.13;4.28;;;7.20;99.90;;;;;;5044605;28;21831;-75
2023/04/14 06:35:26;;;;;;;6.85;4.20;;;7.40;99.90;;;;;;5054230;28;20195;-74
2023/04/14 06:37:51;;;;;;;4.45;4.15;;;7.40;99.90;;;;;;5051263;28;20187;-74
2023/04/14 06:40:17;;;;;;;4.65;4.30;;;7.30;99.90;;;;;;5033761;28;20275;-75
2023/04/14 06:42:42;;;;;;;4.32;3.92;;;7.30;99.90;;;;;;5052015;28;20532;-75
2023/04/14 06:45:08;;;;;;;4.10;3.80;;;7.50;99.90;;;;;;5035136;28;20704;-75
2023/04/14 06:47:34;;;;;;;4.35;3.95;;;7.40;99.90;;;;;;5047195;28;20184;-75
2023/04/14 06:50:02;;;;;;;4.70;4.30;;;7.40;99.90;;;;;;5046292;28;20187;-75
2023/04/14 06:52:27;;;;;;;4.30;3.85;;;7.60;99.90;;;;;;5047823;28;20211;-75
2023/04/14 06:54:53;;;;;;;3.70;3.40;;;7.50;99.90;;;;;;5053464;28;20215;-75
2023/04/14 06:57:18;;;;;;;4.00;3.78;;;7.50;99.90;;;;;;5053957;28;20176;-74
2023/04/14 06:59:45;;;;;;;4.35;3.95;;;7.50;99.90;;;;;;5053464;28;20923;-74
2023/04/14 07:02:11;;;;;;;4.30;3.90;;;7.50;99.90;;;;;;5032373;28;20271;-74
2023/04/14 07:04:36;;;;;;;4.13;3.83;;;7.50;99.90;;;;;;5050920;28;20286;-75
2023/04/14 07:07:02;;;;;;;4.93;3.50;;;7.70;99.90;;;;;;5046694;28;20188;-74
2023/04/14 07:09:28;;;;;;;4.30;3.90;;;7.80;99.90;;;;;;5049772;28;20188;-74
2023/04/14 07:11:55;;;;;;;4.15;3.75;;;7.70;99.90;;;;;;5036770;28;20191;-75
2023/04/14 07:14:21;;;;;;;4.15;3.63;;;7.70;99.90;;;;;;5050887;28;20216;-75
2023/04/14 07:16:47;;;;;;;4.28;3.83;;;7.90;99.90;;;;;;5053640;28;20234;-75
2023/04/14 07:19:12;;;;;;;4.45;4.13;;;7.90;99.90;;;;;;5044235;28;20176;-74
2023/04/14 07:21:38;;;;;;;5.13;4.72;;;8.00;99.90;;;;;;5043831;28;20333;-73
2023/04/14 07:24:04;;;;;;;5.90;5.40;;;8.20;99.90;;;;;;5027141;28;20295;-74
2023/04/14 07:26:30;;;;;;;6.32;5.72;;;8.30;99.90;;;;;;5044988;28;20180;-74
2023/04/14 07:28:55;;;;;;;6.10;5.70;;;8.30;99.90;;;;;;5028727;28;20614;-74
2023/04/14 07:31:21;;;;;;;6.78;6.13;;;8.30;99.90;;;;;;5029338;28;20194;-73
2023/04/14 07:33:47;;;;;;;6.97;6.28;;;8.10;99.90;;;;;;5053166;28;20211;-73
2023/04/14 07:36:12;;;;;;;6.40;5.80;;;8.10;99.90;;;;;;5049437;28;20169;-74
2023/04/14 07:38:38;;;;;;;6.25;5.75;;;8.20;99.90;;;;;;5049863;28;20833;-76
2023/04/14 07:41:05;;;;;;;7.45;6.68;;;8.30;99.90;;;;;;5029880;28;20210;-74
2023/04/14 07:43:34;;;;;;;6.40;5.90;;;8.50;99.90;;;;;;5043507;28;20192;-74
2023/04/14 07:46:05;;;;;;;7.22;5.70;;;8.70;99.90;;;;;;5054356;28;20187;-74
2023/04/14 07:48:32;;;;;;;7.13;6.40;;;8.50;99.90;;;;;;5050410;28;20656;-73
2023/04/14 07:50:58;;;;;;;6.68;6.15;;;8.50;99.90;;;;;;5047933;28;20687;-74
2023/04/14 07:53:23;;;;;;;5.70;5.20;;;8.50;99.90;;;;;;5047710;28;20202;-73
2023/04/14 07:55:49;;;;;;;6.65;6.05;;;8.70;99.90;;;;;;5048942;28;20282;-73
2023/04/14 07:58:15;;;;;;;6.30;5.80;;;8.80;99.90;;;;;;5044656;28;20180;-73
2023/04/14 08:00:41;;;;;;;6.55;5.95;;;8.80;99.90;;;;;;5040461;28;20590;-73
2023/04/14 08:03:07;;;;;;;5.97;5.40;;;8.80;99.90;;;;;;5048070;28;20652;-74
2023/04/14 08:05:32;;;;;;;6.00;5.55;;;8.90;99.90;;;;;;5046818;28;20193;-74
2023/04/14 08:07:58;;;;;;;5.47;4.97;;;8.70;99.90;;;;;;5030552;28;20179;-74
2023/04/14 08:10:24;;;;;;;5.70;5.20;;;8.70;99.90;;;;;;5049808;28;20183;-73
2023/04/14 08:12:51;;;;;;;5.30;4.93;;;8.80;99.90;;;;;;5050297;28;20184;-73
2023/04/14 08:15:17;;;;;;;6.18;5.03;;;8.90;99.90;;;;;;5043934;28;20481;-74
2023/04/14 08:17:43;;;;;;;4.68;4.32;;;8.90;99.90;;;;;;5050331;28;20286;-73
2023/04/14 08:20:08;;;;;;;5.63;5.13;;;8.80;99.90;;;;;;5053569;28;20192;-73
2023/04/14 08:22:34;;;;;;;6.72;4.90;;;8.90;99.90;;;;;;5032784;28;20184;-74
2023/04/14 08:25:00;;;;;;;5.25;4.88;;;8.80;99.90;;;;;;5046848;28;20964;-74
2023/04/14 08:27:25;;;;;;;5.35;4.90;;;8.90;99.90;;;;;;5050364;28;20185;-74
2023/04/14 08:29:51;;;;;;;5.18;4.78;;;8.90;99.90;;;;;;5038216;28;20184;-73
2023/04/14 08:32:16;;;;;;;5.30;4.75;;;9.10;99.90;;;;;;5050796;28;20195;-73
2023/04/14 08:34:43;;;;;;;5.55;5.05;;;9.10;99.90;;;;;;5049525;28;20783;-73
2023/04/14 08:37:08;;;;;;;4.68;4.28;;;9.30;99.90;;;;;;5048930;28;20183;-74
2023/04/14 08:39:34;;;;;;;4.18;3.80;;;9.30;99.90;;;;;;5049388;28;20175;-75
2023/04/14 08:42:00;;;;;;;4.60;4.30;;;9.40;99.90;;;;;;5046284;28;20538;-77
2023/04/14 08:44:26;;;;;;;4.50;4.20;;;9.30;99.90;;;;;;5052391;28;20203;-74
2023/04/14 08:46:52;;;;;;;5.72;4.43;;;9.20;99.90;;;;;;5048587;28;20187;-74
2023/04/14 08:49:34;;;;;;;4.20;3.90;;;9.10;99.90;;;;;;5052926;28;20188;-74
2023/04/14 08:52:02;;;;;;;7.07;4.15;;;9.10;99.90;;;;;;5049903;28;20184;-74
2023/04/14 08:54:28;;;;;;;4.68;4.28;;;9.10;99.90;;;;;;5044611;28;20223;-74
2023/04/14 08:56:57;;;;;;;4.82;4.40;;;9.00;99.90;;;;;;5042229;28;20191;-75
2023/04/14 08:59:23;;;;;;;4.72;4.32;;;9.10;99.90;;;;;;5048828;28;20176;-74
2023/04/14 09:01:51;;;;;;;4.50;4.20;;;9.10;99.90;;;;;;5043894;28;20176;-75
2023/04/14 09:04:19;;;;;;;4.25;3.95;;;9.20;99.90;;;;;;5046044;28;20250;-75
2023/04/14 09:06:44;;;;;;;4.30;4.00;;;9.10;99.90;;;;;;5050213;28;20207;-74
2023/04/14 09:09:10;;;;;;;4.45;4.15;;;9.10;99.90;;;;;;5045545;28;20238;-75
2023/04/14 09:11:36;;;;;;;4.30;4.00;;;9.00;99.90;;;;;;5051079;28;20610;-75
2023/04/14 09:14:03;;;;;;;5.22;4.82;;;9.00;99.90;;;;;;5046378;28;20220;-75
2023/04/14 09:16:29;;;;;;;4.53;4.22;;;9.00;99.90;;;;;;5044723;28;20180;-75
2023/04/14 09:18:56;;;;;;;4.93;4.43;;;9.00;99.90;;;;;;5039122;28;20659;-74
2023/04/14 09:21:22;;;;;;;5.32;4.93;;;8.90;99.90;;;;;;5046945;28;20188;-75
2023/04/14 09:23:48;;;;;;;4.53;4.18;;;8.80;99.90;;;;;;5051139;28;20195;-74
2023/04/14 09:26:14;;;;;;;4.90;4.60;;;8.70;99.90;;;;;;5042575;28;20283;-75
2023/04/14 09:28:40;;;;;;;4.47;4.18;;;8.60;99.90;;;;;;5046863;28;20246;-75
2023/04/14 09:31:07;;;;;;;5.28;4.78;;;8.50;99.90;;;;;;5051202;28;20184;-77
2023/04/14 09:33:38;;;;;;;5.50;4.80;;;8.50;99.90;;;;;;5057032;28;20231;-78
2023/04/14 09:36:03;;;;;;;4.68;4.20;;;8.40;99.90;;;;;;5047194;28;20803;-78
2023/04/14 09:38:33;;;;;;;4.68;4.38;;;8.30;99.90;;;;;;5052693;28;20263;-78
2023/04/14 09:41:00;;;;;;;4.95;4.55;;;8.30;99.90;;;;;;5032158;28;20230;-78
2023/04/14 09:43:26;;;;;;;4.70;4.30;;;8.20;99.90;;;;;;5040567;28;20189;-78
2023/04/14 09:45:53;;;;;;;4.55;4.18;;;8.30;99.90;;;;;;5041683;28;20180;-78
2023/04/14 09:48:19;;;;;;;5.25;4.75;;;8.30;99.90;;;;;;5047606;28;20260;-77
2023/04/14 09:51:15;;;;;;;5.10;4.70;;;8.40;99.90;;;;;;5045694;28;20188;-78
2023/04/14 09:53:41;;;;;;;4.53;4.15;;;8.50;99.90;;;;;;5026375;28;20236;-78
2023/04/14 09:56:09;;;;;;;4.75;4.43;;;8.60;99.90;;;;;;5045321;28;20183;-79
2023/04/14 09:58:37;;;;;;;5.15;4.68;;;8.70;99.90;;;;;;5036623;28;20602;-76
2023/04/14 10:01:04;;;;;;;4.68;4.38;;;8.80;99.90;;;;;;5044763;28;20179;-75
2023/04/14 10:03:36;;;;;;;4.93;4.63;;;8.80;99.90;;;;;;5047150;28;20682;-75
2023/04/14 10:06:06;;;;;;;5.15;4.68;;;8.90;99.90;;;;;;5046324;28;20279;-75
2023/04/14 10:08:36;;;;;;;4.70;4.30;;;8.90;99.90;;;;;;5050971;28;20172;-75
2023/04/14 10:11:15;;;;;;;5.20;4.80;;;8.90;99.90;;;;;;5046228;28;20262;-75
2023/04/14 10:13:41;;;;;;;5.15;4.65;;;8.80;99.90;;;;;;5043260;28;20215;-77
2023/04/14 10:16:07;;;;;;;5.10;4.50;;;8.90;99.90;;;;;;5052878;28;20377;-74
2023/04/14 10:18:34;;;;;;;5.90;4.93;;;8.90;99.90;;;;;;5040450;28;20183;-75
2023/04/14 10:21:00;;;;;;;4.72;4.43;;;9.00;99.90;;;;;;5038801;28;20263;-75
2023/04/14 10:23:26;;;;;;;4.88;4.57;;;9.10;99.90;;;;;;5040560;28;20184;-76
2023/04/14 10:25:54;;;;;;;5.68;5.20;;;9.20;99.90;;;;;;5049826;28;20187;-76
2023/04/14 10:28:21;;;;;;;5.63;4.78;;;9.00;99.90;;;;;;5041823;28;20180;-77
2023/04/14 10:30:49;;;;;;;4.85;4.45;;;9.00;99.90;;;;;;5049869;28;20248;-76
2023/04/14 10:33:14;;;;;;;7.18;5.10;;;8.90;99.90;;;;;;5048606;28;20176;-77
2023/04/14 10:35:44;;;;;;;5.20;4.70;;;9.10;99.90;;;;;;5049533;28;20206;-77
2023/04/14 10:38:09;;;;;;;4.80;4.47;;;9.10;99.90;;;;;;5044689;28;20183;-78
2023/04/14 10:40:45;;;;;;;5.40;4.90;;;9.00;99.90;;;;;;5039201;28;20180;-77
2023/04/14 10:43:14;;;;;;;6.03;4.50;;;9.00;99.90;;;;;;5044967;28;21241;-77
2023/04/14 10:45:56;;;;;;;5.93;4.90;;;9.00;99.90;;;;;;5045085;28;20249;-77
2023/04/14 10:48:31;;;;;;;5.25;4.80;;;9.00;99.90;;;;;;5047279;28;20627;-77
2023/04/14 10:51:05;;;;;;;5.55;5.05;;;9.00;99.90;;;;;;5052452;28;20642;-77
2023/04/14 10:53:49;;;;;;;5.72;5.22;;;9.10;99.90;;;;;;5045574;28;20689;-76
2023/04/14 10:56:15;;;;;;;6.28;5.65;;;9.30;99.90;;;;;;5041995;28;20547;-78
2023/04/14 10:58:54;;;;;;;6.20;5.70;;;9.30;99.90;;;;;;5047139;28;20267;-76
2023/04/14 11:01:24;;;;;;;4.75;4.45;;;9.40;99.90;;;;;;5045980;28;20180;-76
2023/04/14 11:03:50;;;;;;;5.35;4.95;;;9.40;99.90;;;;;;5040244;28;20750;-76
2023/04/14 11:06:44;;;;;;;5.72;5.32;;;9.70;99.90;;;;;;5052674;28;20179;-76
2023/04/14 11:09:37;;;;;;;5.72;5.15;;;9.60;99.90;;;;;;5047723;28;20180;-76
2023/04/14 11:12:30;;;;;;;6.05;5.65;;;9.70;99.90;;;;;;5033201;28;20189;-76
2023/04/14 11:15:01;;;;;;;7.00;6.32;;;9.90;99.90;;;;;;5035473;28;20231;-76
2023/04/14 11:17:29;;;;;;;6.15;5.65;;;10.10;99.90;;;;;;5051529;28;20305;-80
2023/04/14 11:19:59;;;;;;;7.20;6.53;;;10.30;99.90;;;;;;5048198;28;20287;-76
2023/04/14 11:22:41;;;;;;;6.05;5.55;;;10.50;99.90;;;;;;5048454;28;20206;-75
2023/04/14 11:25:09;;;;;;;6.85;5.57;;;10.90;99.90;;;;;;5052814;28;20554;-75
2023/04/14 11:27:36;;;;;;;6.38;5.82;;;10.90;99.90;;;;;;5034489;28;20261;-76
2023/04/14 11:30:02;;;;;;;5.90;5.50;;;11.00;99.90;;;;;;5045474;28;20199;-75
2023/04/14 11:32:28;;;;;;;5.32;4.93;;;10.80;99.90;;;;;;5034159;28;20187;-76
2023/04/14 11:34:54;;;;;;;5.00;4.50;;;10.60;99.90;;;;;;5050163;28;20290;-75
2023/04/14 11:37:20;;;;;;;5.80;5.22;;;10.60;99.90;;;;;;5050698;28;20350;-75
2023/04/14 11:39:47;;;;;;;5.53;5.03;;;10.30;99.90;;;;;;5044726;28;20180;-75
2023/04/14 11:42:13;;;;;;;5.30;4.85;;;10.00;99.90;;;;;;5043599;28;20233;-75
2023/04/14 11:44:38;;;;;;;5.05;4.53;;;10.00;99.90;;;;;;5036071;28;20196;-75
2023/04/14 11:47:04;;;;;;;5.47;4.97;;;10.10;99.90;;;;;;5049308;28;20195;-75
2023/04/14 11:49:36;;;;;;;5.55;4.70;;;10.30;99.90;;;;;;5053396;28;20180;-76
2023/04/14 11:52:08;;;;;;;4.57;4.28;;;10.50;99.90;;;;;;5048715;28;20184;-76
2023/04/14 11:54:37;;;;;;;5.70;4.43;;;10.70;99.90;;;;;;5053171;28;20308;-75
2023/04/14 11:57:13;;;;;;;4.15;3.85;;;10.60;99.90;;;;;;5048065;28;20175;-76
2023/04/14 11:59:46;;;;;;;4.22;3.85;;;10.90;99.90;;;;;;5048988;28;20203;-76
2023/04/14 12:02:16;;;;;;;5.95;4.28;;;10.80;99.90;;;;;;5056503;28;20185;-75
2023/04/14 12:04:43;;;;;;;5.07;4.68;;;11.30;99.90;;;;;;5047593;28;20196;-75
2023/04/14 12:07:13;;;;;;;4.65;4.32;;;11.60;99.90;;;;;;5049604;28;20267;-75
2023/04/14 12:09:47;;;;;;;4.80;4.35;;;11.90;99.90;;;;;;5051672;28;20179;-75
2023/04/14 12:12:15;;;;;;;4.90;4.43;;;12.40;99.90;;;;;;5046022;28;20184;-76
2023/04/14 12:14:46;;;;;;;4.47;4.15;;;12.20;99.90;;;;;;5049000;28;20230;-76
2023/04/14 12:17:14;;;;;;;4.82;4.43;;;12.10;99.90;;;;;;5051872;28;20172;-76
2023/04/14 12:19:40;;;;;;;6.10;5.25;;;11.60;99.90;;;;;;5047750;28;20675;-76
2023/04/14 12:22:08;;;;;;;6.25;5.50;;;10.90;99.90;;;;;;5050577;28;20188;-77
2023/04/14 12:24:38;;;;;;;4.30;4.00;;;10.10;99.90;;;;;;5033080;28;20209;-75
2023/04/14 12:27:06;;;;;;;4.40;4.10;;;9.00;99.90;;;;;;5046538;28;20241;-76
2023/04/14 12:29:32;;;;;;;5.03;4.63;;;8.50;99.90;;;;;;5047784;28;20659;-76
2023/04/14 12:31:58;;;;;;;5.85;5.40;;;8.30;99.90;;;;;;5042296;28;20211;-76
2023/04/14 12:34:24;;;;;;;6.28;5.78;;;8.20;99.90;;;;;;5049698;28;20985;-76
2023/04/14 12:36:53;;;;;;;6.80;6.25;;;8.10;99.90;;;;;;5029680;28;20265;-76
2023/04/14 12:39:21;;;;;;;6.68;6.10;;;8.10;99.90;;;;;;5049722;28;20270;-76
2023/04/14 12:41:47;;;;;;;6.43;5.93;;;8.10;99.90;;;;;;5044823;28;20207;-76
2023/04/14 12:44:17;;;;;;;5.78;5.38;;;8.10;99.90;;;;;;5044252;28;20894;-76
2023/04/14 12:46:51;;;;;;;5.68;5.22;;;8.10;99.90;;;;;;5049505;28;20202;-76
2023/04/14 12:49:32;;;;;;;6.20;5.57;;;8.00;99.90;;;;;;5049425;28;20184;-75
2023/04/14 12:51:57;;;;;;;6.45;5.85;;;8.10;99.90;;;;;;5050882;28;20218;-76
2023/04/14 12:54:23;;;;;;;6.38;5.88;;;8.50;99.90;;;;;;5034550;28;20655;-75
2023/04/14 12:56:49;;;;;;;5.40;4.90;;;9.20;99.90;;;;;;5050003;28;20192;-76
2023/04/14 12:59:14;;;;;;;4.97;4.57;;;9.60;99.90;;;;;;5042481;28;20176;-76
2023/04/14 13:01:40;;;;;;;5.38;4.97;;;9.60;99.90;;;;;;5045368;28;20670;-76